Time;durP1;ratioP1;P1;durP2;ratioP2;P2;SDS_P1;SDS_P2;PMS_P1;PMS_P2;Temp;Humidity;BMP_temperature;BMP_pressure;BME280_temperature;BME280_humidity;BME280_pressure;Samples;Min_cycle;Max_cycle;Signal;HPM_P1;HPM_P2
2023/01/01 00:00:48;;;;;;;8.65;1.88;;;12.30;99.90;;;;;;5054724;28;20052;-55
2023/01/01 00:03:16;;;;;;;10.00;2.10;;;12.30;99.90;;;;;;5054756;28;20037;-51
2023/01/01 00:05:42;;;;;;;8.57;1.90;;;12.30;99.90;;;;;;5054959;28;20411;-51
2023/01/01 00:08:09;;;;;;;8.68;1.92;;;12.30;99.90;;;;;;5054383;28;20047;-52
2023/01/01 00:10:36;;;;;;;8.50;2.95;;;12.30;99.90;;;;;;5053947;28;20041;-53
2023/01/01 00:13:03;;;;;;;17.20;4.80;;;12.30;99.90;;;;;;5053970;28;20091;-53
2023/01/01 00:15:29;;;;;;;10.98;4.35;;;12.30;99.90;;;;;;5051169;28;20434;-52
2023/01/01 00:17:56;;;;;;;13.05;4.43;;;12.30;99.90;;;;;;5042576;28;20099;-55
2023/01/01 00:20:23;;;;;;;14.48;4.63;;;12.30;99.90;;;;;;5036017;28;20076;-54
2023/01/01 00:22:55;;;;;;;9.35;3.70;;;12.20;99.90;;;;;;5037149;28;20117;-51
2023/01/01 00:25:22;;;;;;;11.38;3.95;;;12.20;99.90;;;;;;5032229;28;20112;-53
2023/01/01 00:27:49;;;;;;;12.35;3.63;;;12.10;99.90;;;;;;5032689;28;20036;-54
2023/01/01 00:30:16;;;;;;;12.15;3.83;;;12.10;99.90;;;;;;5035504;28;20036;-55
2023/01/01 00:32:43;;;;;;;9.77;3.63;;;12.10;99.90;;;;;;5043398;28;20041;-54
2023/01/01 00:35:21;;;;;;;13.45;3.70;;;12.00;99.90;;;;;;5040741;28;20045;-53
2023/01/01 00:37:48;;;;;;;9.63;4.22;;;11.90;99.90;;;;;;5043506;28;20045;-51
2023/01/01 00:40:15;;;;;;;11.30;3.83;;;11.90;99.90;;;;;;5032495;28;20065;-56
2023/01/01 00:42:41;;;;;;;12.65;3.67;;;11.90;99.90;;;;;;5031149;28;20038;-51
2023/01/01 00:45:08;;;;;;;14.43;3.65;;;11.80;99.90;;;;;;5038920;28;20037;-53
2023/01/01 00:47:38;;;;;;;12.88;3.42;;;11.80;99.90;;;;;;5042509;28;20061;-49
2023/01/01 00:50:05;;;;;;;10.82;2.83;;;11.80;99.90;;;;;;5041898;28;20038;-55
2023/01/01 00:52:32;;;;;;;13.38;3.05;;;11.80;99.90;;;;;;5040319;28;20042;-50
2023/01/01 00:54:58;;;;;;;9.70;3.78;;;11.80;99.90;;;;;;5040857;28;20045;-49
2023/01/01 00:57:25;;;;;;;10.40;2.90;;;11.80;99.90;;;;;;5041042;28;20045;-54
2023/01/01 00:59:52;;;;;;;10.82;2.58;;;11.70;99.90;;;;;;5043731;28;20036;-54
2023/01/01 01:02:19;;;;;;;10.02;2.50;;;11.70;99.90;;;;;;5039959;28;20061;-54
2023/01/01 01:04:46;;;;;;;14.95;3.33;;;11.70;99.90;;;;;;5043045;28;20037;-54
2023/01/01 01:07:12;;;;;;;12.40;3.20;;;11.60;99.90;;;;;;5040856;28;20033;-55
2023/01/01 01:09:39;;;;;;;10.05;2.20;;;11.60;99.90;;;;;;5041379;28;20072;-55
2023/01/01 01:12:06;;;;;;;11.00;2.13;;;11.60;99.90;;;;;;5042045;28;20041;-53
2023/01/01 01:14:44;;;;;;;9.95;1.98;;;11.50;99.90;;;;;;5040108;28;20077;-54
2023/01/01 01:17:11;;;;;;;11.02;2.05;;;11.50;99.90;;;;;;5040234;28;20076;-54
2023/01/01 01:19:38;;;;;;;12.13;2.63;;;11.50;99.90;;;;;;5042452;28;20120;-55
2023/01/01 01:22:04;;;;;;;10.52;1.75;;;11.40;99.90;;;;;;5040971;28;20431;-55
2023/01/01 01:24:31;;;;;;;13.00;2.53;;;11.40;99.90;;;;;;5040025;28;20053;-55
2023/01/01 01:26:58;;;;;;;12.70;2.33;;;11.40;99.90;;;;;;5042148;28;20045;-52
2023/01/01 01:29:24;;;;;;;17.15;2.72;;;11.40;99.90;;;;;;5041075;28;20041;-51
2023/01/01 01:31:51;;;;;;;12.73;2.28;;;11.40;99.90;;;;;;5040388;28;20416;-53
2023/01/01 01:34:18;;;;;;;16.40;2.50;;;11.30;99.90;;;;;;5040644;28;20076;-55
2023/01/01 01:36:53;;;;;;;8.77;2.30;;;11.30;99.90;;;;;;5038601;28;20045;-55
2023/01/01 01:39:19;;;;;;;15.95;2.65;;;11.30;99.90;;;;;;5040086;28;20095;-56
2023/01/01 01:41:46;;;;;;;14.27;2.85;;;11.30;99.90;;;;;;5043122;28;20033;-55
2023/01/01 01:44:13;;;;;;;11.13;2.97;;;11.30;99.90;;;;;;5031402;28;20516;-52
2023/01/01 01:46:40;;;;;;;14.48;2.58;;;11.30;99.90;;;;;;5031115;28;20088;-52
2023/01/01 01:49:07;;;;;;;17.70;2.90;;;11.30;99.90;;;;;;5038456;28;20041;-51
2023/01/01 01:51:33;;;;;;;11.43;2.55;;;11.30;99.90;;;;;;5042154;28;20034;-51
2023/01/01 01:54:00;;;;;;;13.85;3.17;;;11.20;99.90;;;;;;5042821;28;20069;-52
2023/01/01 01:56:27;;;;;;;14.05;2.90;;;11.20;99.90;;;;;;5045459;28;20087;-53
2023/01/01 01:58:53;;;;;;;12.25;2.65;;;11.20;99.90;;;;;;5045574;28;20120;-52
2023/01/01 02:01:22;;;;;;;14.13;2.50;;;11.20;99.90;;;;;;5045390;28;20041;-54
2023/01/01 02:03:48;;;;;;;15.93;2.72;;;11.20;99.90;;;;;;5044951;28;20095;-53
2023/01/01 02:06:15;;;;;;;15.82;2.72;;;11.20;99.90;;;;;;5044015;28;20546;-52
2023/01/01 02:08:42;;;;;;;16.95;3.08;;;11.20;99.90;;;;;;5046020;28;20085;-55
2023/01/01 02:11:08;;;;;;;15.90;3.22;;;11.20;99.90;;;;;;5046341;28;20063;-51
2023/01/01 02:13:37;;;;;;;14.93;2.78;;;11.10;99.90;;;;;;5044500;28;20133;-53
2023/01/01 02:16:04;;;;;;;17.33;3.13;;;11.10;99.90;;;;;;5043785;28;20099;-49
2023/01/01 02:18:30;;;;;;;15.02;2.80;;;11.10;99.90;;;;;;5045710;28;20040;-53
2023/01/01 02:20:57;;;;;;;15.82;3.00;;;11.10;99.90;;;;;;5046206;28;20041;-49
2023/01/01 02:23:24;;;;;;;16.52;3.08;;;11.10;99.90;;;;;;5043661;28;20060;-54
2023/01/01 02:25:51;;;;;;;18.20;3.33;;;11.10;99.90;;;;;;5046221;28;20041;-55
2023/01/01 02:28:17;;;;;;;17.63;3.42;;;11.10;99.90;;;;;;5044184;28;20061;-53
2023/01/01 02:30:44;;;;;;;17.02;3.60;;;11.10;99.90;;;;;;5043724;28;20099;-52
2023/01/01 02:33:11;;;;;;;14.73;3.22;;;11.10;99.90;;;;;;5047231;28;20484;-56
2023/01/01 02:35:38;;;;;;;19.77;4.30;;;11.10;99.90;;;;;;5043512;28;20041;-55
2023/01/01 02:38:04;;;;;;;16.00;3.42;;;11.10;99.90;;;;;;5043616;28;20072;-52
2023/01/01 02:40:31;;;;;;;17.50;3.53;;;11.10;99.90;;;;;;5044179;28;20041;-56
2023/01/01 02:42:58;;;;;;;18.77;3.55;;;11.10;99.90;;;;;;5042857;28;20076;-51
2023/01/01 02:45:24;;;;;;;15.15;3.28;;;11.10;99.90;;;;;;5043931;28;20562;-53
2023/01/01 02:47:51;;;;;;;20.08;3.42;;;11.10;99.90;;;;;;5045604;28;20099;-50
2023/01/01 02:50:18;;;;;;;16.00;3.15;;;11.00;99.90;;;;;;5042003;28;20175;-52
2023/01/01 02:52:45;;;;;;;16.75;3.30;;;11.00;99.90;;;;;;5044453;28;20483;-51
2023/01/01 02:55:11;;;;;;;20.08;3.85;;;11.00;99.90;;;;;;5044374;28;20476;-56
2023/01/01 02:57:38;;;;;;;17.70;4.20;;;11.00;99.90;;;;;;5043673;28;20041;-55
2023/01/01 03:00:27;;;;;;;16.92;4.43;;;11.00;99.90;;;;;;5042775;28;20103;-54
2023/01/01 03:02:54;;;;;;;21.45;3.95;;;11.00;99.90;;;;;;5040923;28;20095;-54
2023/01/01 03:05:20;;;;;;;17.13;4.50;;;10.90;99.90;;;;;;5043191;28;20037;-54
2023/01/01 03:07:47;;;;;;;18.48;4.10;;;10.90;99.90;;;;;;5044181;28;20069;-55
2023/01/01 03:10:14;;;;;;;18.88;3.30;;;10.90;99.90;;;;;;5044465;28;20052;-51
2023/01/01 03:12:42;;;;;;;16.80;3.53;;;10.90;99.90;;;;;;5046571;28;20041;-50
2023/01/01 03:15:09;;;;;;;18.85;3.20;;;10.90;99.90;;;;;;5041561;28;20068;-49
2023/01/01 03:17:36;;;;;;;23.25;3.60;;;10.80;99.90;;;;;;5033843;28;20050;-54
2023/01/01 03:20:02;;;;;;;17.40;3.42;;;10.80;99.90;;;;;;5034891;28;20060;-53
2023/01/01 03:22:29;;;;;;;17.25;3.17;;;10.80;99.90;;;;;;5035252;28;20116;-51
2023/01/01 03:24:56;;;;;;;21.02;4.07;;;10.80;99.90;;;;;;5035629;28;20098;-52
2023/01/01 03:27:23;;;;;;;17.95;3.17;;;10.80;99.90;;;;;;5035519;28;20045;-50
2023/01/01 03:29:49;;;;;;;23.67;4.32;;;10.70;99.90;;;;;;5035473;28;20041;-51
2023/01/01 03:32:18;;;;;;;23.63;3.72;;;10.70;99.90;;;;;;5035528;28;20057;-50
2023/01/01 03:34:45;;;;;;;22.25;3.75;;;10.70;99.90;;;;;;5035566;28;20049;-55
2023/01/01 03:37:12;;;;;;;18.27;3.83;;;10.70;99.90;;;;;;5035347;28;20057;-52
2023/01/01 03:39:38;;;;;;;17.08;3.70;;;10.70;99.90;;;;;;5035321;28;20492;-55
2023/01/01 03:42:05;;;;;;;24.90;4.47;;;10.70;99.90;;;;;;5033547;28;20041;-54
2023/01/01 03:44:32;;;;;;;23.75;3.97;;;10.70;99.90;;;;;;5034640;28;20044;-53
2023/01/01 03:47:00;;;;;;;21.13;3.75;;;10.70;99.90;;;;;;5035028;28;20061;-50
2023/01/01 03:49:27;;;;;;;21.80;3.53;;;10.70;99.90;;;;;;5043710;28;20103;-55
2023/01/01 03:51:53;;;;;;;22.92;4.88;;;10.70;99.90;;;;;;5047144;28;20033;-50
2023/01/01 03:54:20;;;;;;;21.35;3.95;;;10.70;99.90;;;;;;5052907;28;20107;-56
2023/01/01 03:56:47;;;;;;;21.65;4.30;;;10.70;99.90;;;;;;5054023;28;20037;-51
2023/01/01 03:59:14;;;;;;;18.73;4.40;;;10.70;99.90;;;;;;5054788;28;20087;-54
2023/01/01 04:01:40;;;;;;;21.23;3.70;;;10.70;99.90;;;;;;5054565;28;20045;-53
2023/01/01 04:04:07;;;;;;;18.48;3.63;;;10.70;99.90;;;;;;5054388;28;20045;-52
2023/01/01 04:06:34;;;;;;;18.25;3.55;;;10.60;99.90;;;;;;5055024;28;20170;-55
2023/01/01 04:09:01;;;;;;;19.02;3.80;;;10.60;99.90;;;;;;5054776;28;20094;-52
2023/01/01 04:14:14;;;;;;;22.48;3.80;;;10.60;99.90;;;;;;5054361;28;20128;-47
2023/01/01 04:16:43;;;;;;;24.40;4.10;;;10.70;99.90;;;;;;5052923;28;20037;-54
2023/01/01 04:19:09;;;;;;;17.02;3.25;;;10.60;99.90;;;;;;5054544;28;20090;-49
2023/01/01 04:21:36;;;;;;;21.92;4.38;;;10.60;99.90;;;;;;5054527;28;20102;-51
2023/01/01 04:24:03;;;;;;;23.23;4.13;;;10.60;99.90;;;;;;5054348;28;20045;-53
2023/01/01 04:26:30;;;;;;;21.10;3.47;;;10.60;99.90;;;;;;5054236;28;20124;-54
2023/01/01 04:28:56;;;;;;;21.25;3.53;;;10.60;99.90;;;;;;5054500;28;20456;-52
2023/01/01 04:31:23;;;;;;;19.58;4.07;;;10.50;99.90;;;;;;5054318;28;20045;-54
2023/01/01 04:33:50;;;;;;;20.30;3.88;;;10.50;99.90;;;;;;5054520;28;20374;-51
2023/01/01 04:36:16;;;;;;;21.20;3.83;;;10.50;99.90;;;;;;5054406;28;20056;-54
2023/01/01 04:38:43;;;;;;;24.33;3.90;;;10.50;99.90;;;;;;5052798;28;20055;-49
2023/01/01 04:41:10;;;;;;;24.23;3.78;;;10.50;99.90;;;;;;5053940;28;20503;-53
2023/01/01 04:43:37;;;;;;;29.52;4.68;;;10.50;99.90;;;;;;5054330;28;20417;-51
2023/01/01 04:46:03;;;;;;;21.63;4.45;;;10.50;99.90;;;;;;5053849;28;20045;-52
2023/01/01 04:48:30;;;;;;;28.42;4.63;;;10.50;99.90;;;;;;5054027;28;20061;-52
2023/01/01 04:50:57;;;;;;;31.42;5.13;;;10.50;99.90;;;;;;5054028;28;20045;-50
2023/01/01 04:53:24;;;;;;;27.15;4.85;;;10.50;99.90;;;;;;5052566;28;20052;-53
2023/01/01 04:55:50;;;;;;;19.98;4.13;;;10.50;99.90;;;;;;5054031;28;20053;-53
2023/01/01 04:58:17;;;;;;;22.95;4.72;;;10.40;99.90;;;;;;5053768;28;20086;-52
2023/01/01 05:00:44;;;;;;;21.70;5.25;;;10.40;99.90;;;;;;5053951;28;20076;-54
2023/01/01 05:03:11;;;;;;;34.42;4.60;;;10.40;99.90;;;;;;5054002;28;20116;-52
2023/01/01 05:05:37;;;;;;;24.25;4.90;;;10.40;99.90;;;;;;5053752;28;20037;-54
2023/01/01 05:08:04;;;;;;;28.20;5.00;;;10.40;99.90;;;;;;5053480;28;20037;-54
2023/01/01 05:10:31;;;;;;;24.63;5.07;;;10.50;99.90;;;;;;5053700;28;20032;-50
2023/01/01 05:12:57;;;;;;;31.88;5.55;;;10.40;99.90;;;;;;5053609;28;20048;-52
2023/01/01 05:15:24;;;;;;;32.67;4.95;;;10.50;99.90;;;;;;5053526;28;20131;-54
2023/01/01 05:17:51;;;;;;;25.45;4.03;;;10.40;99.90;;;;;;5052602;28;20110;-51
2023/01/01 05:20:18;;;;;;;19.67;4.15;;;10.40;99.90;;;;;;5053457;28;20115;-49
2023/01/01 05:22:45;;;;;;;20.65;4.38;;;10.40;99.90;;;;;;5053473;28;20084;-52
2023/01/01 05:25:11;;;;;;;27.45;4.78;;;10.40;99.90;;;;;;5053628;28;20044;-48
2023/01/01 05:27:38;;;;;;;21.67;4.80;;;10.40;99.90;;;;;;5054647;28;20043;-54
2023/01/01 05:30:05;;;;;;;28.55;4.85;;;10.40;99.90;;;;;;5059883;28;20071;-53
2023/01/01 05:32:31;;;;;;;29.75;4.80;;;10.30;99.90;;;;;;5060252;28;20033;-53
2023/01/01 05:34:58;;;;;;;22.52;4.10;;;10.40;99.90;;;;;;5060111;28;20036;-55
2023/01/01 05:37:25;;;;;;;29.83;4.80;;;10.40;99.90;;;;;;5059897;28;20045;-54
2023/01/01 05:39:52;;;;;;;28.20;4.45;;;10.40;99.90;;;;;;5060263;28;20111;-53
2023/01/01 05:42:18;;;;;;;22.65;3.63;;;10.40;99.90;;;;;;5059837;28;20037;-49
2023/01/01 05:44:45;;;;;;;32.80;5.63;;;10.40;99.90;;;;;;5060341;28;20083;-52
2023/01/01 05:47:14;;;;;;;26.05;4.07;;;10.40;99.90;;;;;;5059796;28;20041;-51
2023/01/01 05:49:40;;;;;;;27.52;4.75;;;10.30;99.90;;;;;;5059723;28;20044;-51
2023/01/01 05:52:07;;;;;;;27.00;4.38;;;10.30;99.90;;;;;;5059709;28;20045;-50
2023/01/01 05:54:34;;;;;;;24.70;3.55;;;10.40;99.90;;;;;;5059785;28;20056;-51
2023/01/01 05:57:01;;;;;;;22.95;4.88;;;10.40;99.90;;;;;;5059924;28;20051;-49
2023/01/01 05:59:27;;;;;;;22.73;4.28;;;10.40;99.90;;;;;;5058643;28;20052;-50
2023/01/01 06:01:54;;;;;;;25.88;4.50;;;10.40;99.90;;;;;;5060168;28;20049;-50
2023/01/01 06:04:21;;;;;;;24.25;4.80;;;10.40;99.90;;;;;;5059600;28;20046;-49
2023/01/01 06:06:48;;;;;;;21.88;3.55;;;10.40;99.90;;;;;;5059880;28;20102;-53
2023/01/01 06:09:14;;;;;;;28.48;4.43;;;10.30;99.90;;;;;;5059809;28;20095;-53
2023/01/01 06:11:41;;;;;;;21.65;4.47;;;10.40;99.90;;;;;;5059948;28;20091;-49
2023/01/01 06:14:08;;;;;;;21.13;4.18;;;10.40;99.90;;;;;;5059675;28;20057;-53
2023/01/01 06:16:35;;;;;;;27.98;4.57;;;10.40;99.90;;;;;;5059583;28;20045;-50
2023/01/01 06:19:01;;;;;;;29.15;4.50;;;10.30;99.90;;;;;;5059812;28;20041;-52
2023/01/01 06:21:28;;;;;;;23.05;3.70;;;10.40;99.90;;;;;;5059612;28;20118;-53
2023/01/01 06:23:56;;;;;;;20.65;3.90;;;10.30;99.90;;;;;;5059692;28;20103;-54
2023/01/01 06:26:23;;;;;;;23.60;4.60;;;10.30;99.90;;;;;;5059678;28;20067;-49
2023/01/01 06:28:50;;;;;;;26.25;3.95;;;10.30;99.90;;;;;;5059482;28;20041;-52
2023/01/01 06:31:16;;;;;;;24.42;4.38;;;10.30;99.90;;;;;;5059684;28;20045;-50
2023/01/01 06:33:43;;;;;;;21.95;4.00;;;10.30;99.90;;;;;;5059668;28;20399;-54
2023/01/01 06:36:10;;;;;;;19.60;4.38;;;10.30;99.90;;;;;;5059849;28;20142;-53
2023/01/01 06:38:38;;;;;;;28.90;4.60;;;10.30;99.90;;;;;;5059407;28;20048;-51
2023/01/01 06:41:04;;;;;;;26.75;4.47;;;10.30;99.90;;;;;;5054617;28;20037;-55
2023/01/01 06:43:31;;;;;;;31.75;5.38;;;10.30;99.90;;;;;;5056530;28;20045;-52
2023/01/01 06:45:58;;;;;;;32.65;5.45;;;10.30;99.90;;;;;;5056254;28;20071;-52
2023/01/01 06:48:25;;;;;;;33.00;5.50;;;10.30;99.90;;;;;;5055865;28;20045;-52
2023/01/01 06:50:51;;;;;;;19.70;4.18;;;10.30;99.90;;;;;;5055637;28;20040;-50
2023/01/01 06:53:18;;;;;;;28.30;4.63;;;10.30;99.90;;;;;;5056427;28;20041;-55
2023/01/01 06:55:45;;;;;;;25.45;4.90;;;10.30;99.90;;;;;;5054831;28;20057;-52
2023/01/01 06:58:15;;;;;;;26.92;4.85;;;10.30;99.90;;;;;;5056160;28;20495;-55
2023/01/01 07:00:42;;;;;;;25.23;4.30;;;10.30;99.90;;;;;;5056237;28;20095;-52
2023/01/01 07:03:09;;;;;;;31.80;4.65;;;10.30;99.90;;;;;;5055894;28;20170;-51
2023/01/01 07:05:36;;;;;;;22.05;3.70;;;10.30;99.90;;;;;;5055525;28;20044;-54
2023/01/01 07:08:03;;;;;;;26.42;5.38;;;10.20;99.90;;;;;;5055943;28;20468;-53
2023/01/01 07:10:29;;;;;;;21.73;3.67;;;10.20;99.90;;;;;;5055997;28;20049;-50
2023/01/01 07:12:56;;;;;;;24.98;4.95;;;10.20;99.90;;;;;;5055810;28;20047;-54
2023/01/01 07:15:23;;;;;;;24.90;5.07;;;10.20;99.90;;;;;;5055603;28;20083;-55
2023/01/01 07:17:49;;;;;;;27.27;4.88;;;10.30;99.90;;;;;;5054413;28;20041;-52
2023/01/01 07:20:16;;;;;;;23.45;4.43;;;10.20;99.90;;;;;;5055864;28;20044;-51
2023/01/01 07:22:43;;;;;;;26.33;4.75;;;10.30;99.90;;;;;;5055721;28;20044;-54
2023/01/01 07:25:10;;;;;;;28.75;4.72;;;10.30;99.90;;;;;;5055630;28;20063;-54
2023/01/01 07:27:37;;;;;;;22.67;4.25;;;10.20;99.90;;;;;;5055398;28;20045;-50
2023/01/01 07:30:03;;;;;;;24.65;4.82;;;10.20;99.90;;;;;;5053930;28;20099;-54
2023/01/01 07:32:30;;;;;;;27.75;4.72;;;10.20;99.90;;;;;;5055379;28;20041;-50
2023/01/01 07:34:57;;;;;;;32.60;5.30;;;10.20;99.90;;;;;;5054169;28;20102;-50
2023/01/01 07:37:25;;;;;;;26.10;4.82;;;10.20;99.90;;;;;;5055125;28;20101;-52
2023/01/01 07:39:51;;;;;;;18.63;4.53;;;10.10;99.90;;;;;;5055429;28;20106;-50
2023/01/01 07:42:18;;;;;;;27.30;5.15;;;10.10;99.90;;;;;;5055398;28;20061;-54
2023/01/01 07:44:45;;;;;;;26.85;4.65;;;10.10;99.90;;;;;;5054767;28;20087;-48
2023/01/01 07:47:12;;;;;;;24.42;4.82;;;10.10;99.90;;;;;;5055088;28;20069;-55
2023/01/01 07:49:38;;;;;;;24.90;4.85;;;10.10;99.90;;;;;;5053882;28;20051;-49
2023/01/01 07:52:05;;;;;;;32.25;4.72;;;10.10;99.90;;;;;;5053645;28;20048;-50
2023/01/01 07:54:32;;;;;;;31.70;6.00;;;10.10;99.90;;;;;;5054946;28;20049;-53
2023/01/01 07:56:58;;;;;;;33.08;5.47;;;10.10;99.90;;;;;;5055040;28;20110;-53
2023/01/01 07:59:25;;;;;;;28.38;4.70;;;10.00;99.90;;;;;;5055032;28;20380;-55
2023/01/01 08:01:52;;;;;;;31.52;5.25;;;10.00;99.90;;;;;;5054851;28;20136;-53
2023/01/01 08:04:19;;;;;;;28.05;5.25;;;10.00;99.90;;;;;;5055064;28;20132;-53
2023/01/01 08:06:45;;;;;;;30.95;5.43;;;10.00;99.90;;;;;;5054691;28;20127;-52
2023/01/01 08:09:12;;;;;;;31.83;5.00;;;10.00;99.90;;;;;;5055019;28;20040;-51
2023/01/01 08:11:39;;;;;;;37.10;6.70;;;10.00;99.90;;;;;;5054285;28;20076;-52
2023/01/01 08:14:06;;;;;;;33.17;5.78;;;10.00;99.90;;;;;;5054286;28;20053;-52
2023/01/01 08:16:32;;;;;;;29.27;5.03;;;10.00;99.90;;;;;;5054558;28;20037;-54
2023/01/01 08:18:59;;;;;;;35.63;5.97;;;10.00;99.90;;;;;;5054551;28;20053;-52
2023/01/01 08:21:26;;;;;;;27.45;5.47;;;10.00;99.90;;;;;;5054851;28;20045;-50
2023/01/01 08:23:53;;;;;;;37.38;5.53;;;10.00;99.90;;;;;;5052806;28;20124;-52
2023/01/01 08:26:19;;;;;;;36.35;5.75;;;10.00;99.90;;;;;;5054137;28;20480;-52
2023/01/01 08:28:46;;;;;;;32.33;5.15;;;10.00;99.90;;;;;;5054232;28;20086;-50
2023/01/01 08:31:20;;;;;;;29.60;5.32;;;10.00;99.90;;;;;;5054130;28;20041;-51
2023/01/01 08:33:47;;;;;;;33.47;5.78;;;10.10;99.90;;;;;;5054340;28;20411;-50
2023/01/01 08:36:15;;;;;;;28.95;5.80;;;10.10;99.90;;;;;;5054115;28;20057;-51
2023/01/01 08:38:41;;;;;;;30.02;6.68;;;10.10;99.90;;;;;;5054303;28;20102;-49
2023/01/01 08:41:08;;;;;;;31.08;6.20;;;10.10;99.90;;;;;;5052516;28;20044;-51
2023/01/01 08:43:35;;;;;;;29.83;5.50;;;10.10;99.90;;;;;;5053568;28;20044;-54
2023/01/01 08:46:02;;;;;;;35.35;5.13;;;10.10;99.90;;;;;;5054054;28;20056;-53
2023/01/01 08:48:28;;;;;;;31.15;5.32;;;10.10;99.90;;;;;;5054042;28;20098;-48
2023/01/01 08:50:58;;;;;;;29.13;5.72;;;10.10;99.90;;;;;;5054128;28;20037;-52
2023/01/01 08:53:25;;;;;;;30.48;5.47;;;10.10;99.90;;;;;;5053897;28;20136;-49
2023/01/01 08:55:52;;;;;;;38.90;6.38;;;10.10;99.90;;;;;;5053835;28;20052;-48
2023/01/01 08:58:19;;;;;;;33.15;5.25;;;10.10;99.90;;;;;;5053767;28;20523;-51
2023/01/01 09:00:45;;;;;;;31.60;6.68;;;10.10;99.90;;;;;;5053964;28;20064;-49
2023/01/01 09:03:12;;;;;;;34.05;6.45;;;10.10;99.90;;;;;;5051841;28;20036;-51
2023/01/01 09:05:44;;;;;;;32.05;5.93;;;10.00;99.90;;;;;;5043141;28;20043;-54
2023/01/01 09:08:11;;;;;;;32.83;5.10;;;10.00;99.90;;;;;;5049400;28;20115;-53
2023/01/01 09:10:38;;;;;;;33.25;5.80;;;10.00;99.90;;;;;;5051780;28;20071;-51
2023/01/01 09:13:05;;;;;;;36.00;5.50;;;10.00;99.90;;;;;;5038302;28;20469;-54
2023/01/01 09:15:32;;;;;;;41.75;7.03;;;10.00;99.90;;;;;;5033749;28;20140;-56
2023/01/01 09:17:59;;;;;;;28.05;5.40;;;10.00;99.90;;;;;;5031949;28;20489;-54
2023/01/01 09:20:26;;;;;;;40.85;9.30;;;10.00;99.90;;;;;;5052717;28;20074;-52
2023/01/01 09:22:53;;;;;;;36.72;6.45;;;10.10;99.90;;;;;;5052238;28;20037;-53
2023/01/01 09:25:19;;;;;;;42.90;7.47;;;10.10;99.90;;;;;;5051637;28;20431;-55
2023/01/01 09:27:46;;;;;;;33.72;6.53;;;10.10;99.90;;;;;;5051906;28;20094;-53
2023/01/01 09:30:13;;;;;;;30.15;5.40;;;10.20;99.90;;;;;;5051725;28;20055;-51
2023/01/01 09:32:39;;;;;;;31.02;5.22;;;10.20;99.90;;;;;;5051556;28;20048;-50
2023/01/01 09:35:06;;;;;;;29.63;5.25;;;10.30;99.90;;;;;;5053351;28;20065;-50
2023/01/01 09:37:33;;;;;;;36.28;5.20;;;10.30;99.90;;;;;;5054155;28;20106;-50
2023/01/01 09:40:00;;;;;;;32.17;6.68;;;10.30;99.90;;;;;;5042496;28;20419;-51
2023/01/01 09:42:27;;;;;;;37.30;7.88;;;10.40;99.90;;;;;;5038231;28;20038;-52
2023/01/01 09:44:53;;;;;;;31.88;6.25;;;10.40;99.90;;;;;;5033197;28;20489;-50
2023/01/01 09:47:20;;;;;;;37.20;5.50;;;10.40;99.90;;;;;;5048564;28;20037;-53
2023/01/01 09:49:47;;;;;;;29.05;5.50;;;10.40;99.90;;;;;;5050587;28;20068;-52
2023/01/01 09:52:14;;;;;;;43.58;5.50;;;10.40;99.90;;;;;;5053155;28;20037;-53
2023/01/01 09:54:40;;;;;;;32.63;5.70;;;10.50;99.90;;;;;;5045388;28;20480;-53
2023/01/01 09:57:10;;;;;;;38.53;6.53;;;10.50;99.90;;;;;;5037583;28;20095;-50
2023/01/01 09:59:45;;;;;;;28.17;5.63;;;10.50;99.90;;;;;;5033194;28;20077;-50
2023/01/01 10:02:12;;;;;;;32.38;5.25;;;10.60;99.90;;;;;;5038714;28;20041;-50
2023/01/01 10:04:39;;;;;;;29.38;5.30;;;10.60;99.90;;;;;;5042002;28;20493;-56
2023/01/01 10:07:05;;;;;;;29.05;5.25;;;10.70;99.90;;;;;;5036256;28;20053;-50
2023/01/01 10:09:32;;;;;;;32.45;5.22;;;10.70;99.90;;;;;;5033149;28;20042;-48
2023/01/01 10:11:59;;;;;;;27.52;5.18;;;10.70;99.90;;;;;;5032763;28;20144;-51
2023/01/01 10:14:26;;;;;;;29.83;6.25;;;10.80;99.90;;;;;;5037891;28;20508;-52
2023/01/01 10:16:52;;;;;;;30.40;5.95;;;10.80;99.90;;;;;;5038193;28;20041;-50
2023/01/01 10:19:19;;;;;;;37.03;6.03;;;10.80;99.90;;;;;;5037055;28;20056;-48
2023/01/01 10:21:48;;;;;;;31.85;6.25;;;10.90;99.90;;;;;;5042915;28;20458;-50
2023/01/01 10:24:15;;;;;;;37.42;5.75;;;10.90;99.90;;;;;;5036552;28;20484;-47
2023/01/01 10:26:41;;;;;;;29.75;5.80;;;11.00;99.90;;;;;;5038656;28;20048;-49
2023/01/01 10:29:08;;;;;;;36.35;5.68;;;11.00;99.90;;;;;;5040300;28;20669;-52
2023/01/01 10:31:35;;;;;;;32.72;5.85;;;11.10;99.90;;;;;;5047589;28;20503;-53
2023/01/01 10:34:02;;;;;;;31.50;5.22;;;11.10;99.90;;;;;;5039665;28;20069;-53
2023/01/01 10:36:28;;;;;;;35.58;6.07;;;11.10;99.90;;;;;;5039804;28;20434;-53
2023/01/01 10:38:55;;;;;;;30.55;5.53;;;11.10;99.90;;;;;;5045020;28;20385;-50
2023/01/01 10:41:22;;;;;;;40.55;7.65;;;11.20;99.90;;;;;;5042251;28;20072;-47
2023/01/01 10:43:48;;;;;;;36.67;8.02;;;11.20;99.90;;;;;;5048393;28;20086;-47
2023/01/01 10:46:15;;;;;;;39.45;10.95;;;11.20;99.90;;;;;;5035867;28;20041;-48
2023/01/01 10:48:42;;;;;;;32.25;6.95;;;11.20;99.90;;;;;;5035740;28;20041;-52
2023/01/01 10:51:09;;;;;;;34.05;6.68;;;11.20;99.90;;;;;;5042406;28;20163;-51
2023/01/01 10:53:35;;;;;;;43.08;7.10;;;11.30;99.90;;;;;;5050221;28;20099;-53
2023/01/01 10:56:02;;;;;;;32.67;6.10;;;11.30;99.90;;;;;;5055365;28;20373;-54
2023/01/01 10:58:29;;;;;;;31.05;5.63;;;11.30;99.90;;;;;;5052692;28;20432;-49
2023/01/01 11:00:55;;;;;;;25.77;5.18;;;11.40;99.90;;;;;;5054261;28;20061;-49
2023/01/01 11:03:22;;;;;;;30.63;5.70;;;11.40;99.90;;;;;;5055352;28;20045;-51
2023/01/01 11:05:49;;;;;;;34.50;5.70;;;11.40;99.90;;;;;;5054000;28;20045;-52
2023/01/01 11:08:17;;;;;;;27.17;5.47;;;11.50;99.90;;;;;;5055241;28;20062;-53
2023/01/01 11:10:43;;;;;;;42.80;13.15;;;11.50;99.90;;;;;;5049141;28;20087;-55
2023/01/01 11:13:10;;;;;;;32.72;6.22;;;11.50;99.90;;;;;;5054842;28;20136;-52
2023/01/01 11:15:37;;;;;;;28.60;5.82;;;11.50;99.90;;;;;;5042570;28;20054;-52
2023/01/01 11:18:04;;;;;;;28.50;5.40;;;11.60;99.90;;;;;;5054458;28;20056;-49
2023/01/01 11:20:30;;;;;;;35.08;5.78;;;11.60;99.90;;;;;;5054959;28;20036;-49
2023/01/01 11:22:57;;;;;;;27.98;5.60;;;11.60;99.90;;;;;;5054035;28;20073;-55
2023/01/01 11:25:25;;;;;;;34.10;6.07;;;11.70;99.90;;;;;;5053971;28;20091;-54
2023/01/01 11:27:51;;;;;;;35.33;6.32;;;11.70;99.90;;;;;;5054741;28;20403;-51
2023/01/01 11:30:20;;;;;;;28.23;5.18;;;11.70;99.90;;;;;;5053272;28;20420;-53
2023/01/01 11:32:47;;;;;;;30.50;5.70;;;11.70;99.90;;;;;;5050004;28;20477;-51
2023/01/01 11:35:22;;;;;;;30.42;5.53;;;11.70;99.90;;;;;;5052222;28;20072;-54
2023/01/01 11:37:48;;;;;;;34.03;4.80;;;11.70;99.90;;;;;;5054378;28;20102;-49
2023/01/01 11:40:15;;;;;;;29.27;4.68;;;11.70;99.90;;;;;;5043202;28;20104;-50
2023/01/01 11:42:42;;;;;;;35.13;5.88;;;11.70;99.90;;;;;;5033930;28;20049;-51
2023/01/01 11:45:09;;;;;;;25.83;5.05;;;11.70;99.90;;;;;;5049224;28;20468;-51
2023/01/01 11:47:36;;;;;;;29.42;4.55;;;11.80;99.90;;;;;;5054385;28;20041;-52
2023/01/01 11:50:04;;;;;;;26.88;5.82;;;11.80;99.90;;;;;;5046889;28;20084;-47
2023/01/01 11:52:31;;;;;;;26.88;5.47;;;11.80;99.90;;;;;;5054315;28;20480;-51
2023/01/01 11:54:58;;;;;;;25.33;5.15;;;11.90;99.90;;;;;;5052120;28;20045;-53
2023/01/01 11:57:24;;;;;;;29.77;4.55;;;11.90;99.90;;;;;;5037443;28;20096;-51
2023/01/01 11:59:51;;;;;;;30.20;5.90;;;11.90;99.90;;;;;;5034891;28;20083;-51
2023/01/01 12:02:18;;;;;;;19.05;4.35;;;11.90;99.90;;;;;;5043199;28;20029;-57
2023/01/01 12:04:45;;;;;;;31.35;5.78;;;11.90;99.90;;;;;;5044789;28;20119;-54
2023/01/01 12:07:11;;;;;;;26.08;5.43;;;11.90;99.90;;;;;;5041118;28;20036;-54
2023/01/01 12:09:38;;;;;;;25.95;4.93;;;11.90;99.90;;;;;;5048693;28;20064;-56
2023/01/01 12:12:06;;;;;;;31.23;4.97;;;11.90;99.90;;;;;;5034036;28;20056;-52
2023/01/01 12:14:33;;;;;;;31.38;5.90;;;11.90;99.90;;;;;;5044010;28;20052;-52
2023/01/01 12:17:00;;;;;;;26.42;5.30;;;11.90;99.90;;;;;;5053740;28;20095;-53
2023/01/01 12:19:26;;;;;;;26.42;4.53;;;12.00;99.90;;;;;;5052911;28;20040;-50
2023/01/01 12:21:53;;;;;;;29.98;5.35;;;11.90;99.90;;;;;;5052102;28;20572;-52
2023/01/01 12:24:20;;;;;;;26.25;5.43;;;11.90;99.90;;;;;;5041146;28;20080;-53
2023/01/01 12:26:46;;;;;;;29.65;5.65;;;11.90;99.90;;;;;;5046063;28;20046;-52
2023/01/01 12:29:13;;;;;;;31.70;4.75;;;11.90;99.90;;;;;;5040776;28;20033;-55
2023/01/01 12:31:40;;;;;;;32.67;4.95;;;11.90;99.90;;;;;;5053695;28;20095;-53
2023/01/01 12:34:07;;;;;;;35.08;5.65;;;11.90;99.90;;;;;;5052577;28;20040;-54
2023/01/01 12:36:34;;;;;;;26.60;4.97;;;11.90;99.90;;;;;;5043733;28;20092;-54
2023/01/01 12:39:00;;;;;;;25.73;4.63;;;11.90;99.90;;;;;;5051546;28;20041;-53